Terminal Aerodrome Forecast
Issued by NWS Charleston, WV

Current Version | Previous Version | Graphics & Text | Print | Product List | Glossary On
Versions: 1 2 3 4 5 6 7 8 9 10 11 12 13 14 15 16 17 18 19 20 21 22 23 24 25 26 27 28 29 30 31
000
FTUS41 KRLX 252300
TAFHTS
TAF
KHTS 252320Z 2600/2624 VRB03KT P6SM SCT250
     FM260300 VRB03KT P6SM SCT060
     FM261400 20006KT P6SM BKN045
     FM261700 26009G14KT P6SM VCTS BKN025CB
     FM261900 29011G22KT 4SM SHRA BR OVC015
     FM262000 33011G22KT 3SM SHRA BR OVC015=

USA.gov is the U.S. government's official web portal to all federal, state and local government web resources and services.